sensor_id;sensor_type;location;lat;lon;timestamp;pressure;altitude;pressure_sealevel;temperature;humidity
77205;BME280;67992;46.618;18.850;2023-04-06T00:00:52;100411.53;;;17.98;23.73
77205;BME280;67992;46.618;18.850;2023-04-06T00:03:18;100408.38;;;17.95;24.06
77205;BME280;67992;46.618;18.850;2023-04-06T00:05:44;100410.41;;;17.93;23.93
77205;BME280;67992;46.618;18.850;2023-04-06T00:08:12;100417.84;;;17.91;24.03
77205;BME280;67992;46.618;18.850;2023-04-06T00:10:38;100421.09;;;17.86;24.27
77205;BME280;67992;46.618;18.850;2023-04-06T00:13:05;100413.38;;;17.83;24.14
77205;BME280;67992;46.618;18.850;2023-04-06T00:15:32;100411.88;;;17.81;24.16
77205;BME280;67992;46.618;18.850;2023-04-06T00:18:00;100411.25;;;17.79;24.21
77205;BME280;67992;46.618;18.850;2023-04-06T00:20:26;100414.94;;;17.78;24.43
77205;BME280;67992;46.618;18.850;2023-04-06T00:22:54;100411.41;;;17.77;24.21
77205;BME280;67992;46.618;18.850;2023-04-06T00:25:22;100410.31;;;17.72;24.31
77205;BME280;67992;46.618;18.850;2023-04-06T00:27:48;100401.13;;;17.66;24.21
77205;BME280;67992;46.618;18.850;2023-04-06T00:30:16;100400.06;;;17.67;24.13
77205;BME280;67992;46.618;18.850;2023-04-06T00:32:42;100398.59;;;17.64;24.59
77205;BME280;67992;46.618;18.850;2023-04-06T00:35:10;100399.44;;;17.65;24.25
77205;BME280;67992;46.618;18.850;2023-04-06T00:37:36;100403.53;;;17.61;24.33
77205;BME280;67992;46.618;18.850;2023-04-06T00:40:02;100392.00;;;17.52;24.46
77205;BME280;67992;46.618;18.850;2023-04-06T00:42:28;100406.56;;;17.58;24.70
77205;BME280;67992;46.618;18.850;2023-04-06T00:44:58;100398.69;;;17.56;24.41
77205;BME280;67992;46.618;18.850;2023-04-06T00:47:27;100390.19;;;17.45;24.39
77205;BME280;67992;46.618;18.850;2023-04-06T00:49:56;100401.22;;;17.50;24.17
77205;BME280;67992;46.618;18.850;2023-04-06T00:52:22;100397.03;;;17.47;24.79
77205;BME280;67992;46.618;18.850;2023-04-06T00:54:51;100395.41;;;17.46;24.77
77205;BME280;67992;46.618;18.850;2023-04-06T00:57:17;100395.56;;;17.45;24.68
77205;BME280;67992;46.618;18.850;2023-04-06T00:59:44;100401.50;;;17.40;24.49
77205;BME280;67992;46.618;18.850;2023-04-06T01:02:12;100397.97;;;17.40;24.75
77205;BME280;67992;46.618;18.850;2023-04-06T01:04:38;100392.28;;;17.35;24.95
77205;BME280;67992;46.618;18.850;2023-04-06T01:07:04;100392.94;;;17.37;24.57
77205;BME280;67992;46.618;18.850;2023-04-06T01:09:29;100388.47;;;17.29;24.56
77205;BME280;67992;46.618;18.850;2023-04-06T01:12:01;100390.34;;;17.29;24.75
77205;BME280;67992;46.618;18.850;2023-04-06T01:14:30;100396.53;;;17.29;24.79
77205;BME280;67992;46.618;18.850;2023-04-06T01:16:58;100397.09;;;17.25;25.11
77205;BME280;67992;46.618;18.850;2023-04-06T01:19:31;100397.28;;;17.23;25.16
77205;BME280;67992;46.618;18.850;2023-04-06T01:21:56;100395.09;;;17.19;25.09
77205;BME280;67992;46.618;18.850;2023-04-06T01:24:22;100401.16;;;17.21;25.02
77205;BME280;67992;46.618;18.850;2023-04-06T01:26:48;100404.84;;;17.20;25.27
77205;BME280;67992;46.618;18.850;2023-04-06T01:29:16;100399.19;;;17.15;24.83
77205;BME280;67992;46.618;18.850;2023-04-06T01:31:42;100396.84;;;17.12;24.83
77205;BME280;67992;46.618;18.850;2023-04-06T01:34:10;100394.50;;;17.08;24.95
77205;BME280;67992;46.618;18.850;2023-04-06T01:36:36;100386.63;;;17.07;24.94
77205;BME280;67992;46.618;18.850;2023-04-06T01:39:05;100391.16;;;17.06;24.95
77205;BME280;67992;46.618;18.850;2023-04-06T01:41:30;100396.75;;;17.05;25.20
77205;BME280;67992;46.618;18.850;2023-04-06T01:43:56;100387.00;;;17.04;25.00
77205;BME280;67992;46.618;18.850;2023-04-06T01:46:21;100387.34;;;17.01;25.21
77205;BME280;67992;46.618;18.850;2023-04-06T01:48:47;100387.53;;;16.99;24.98
77205;BME280;67992;46.618;18.850;2023-04-06T01:51:13;100385.84;;;16.98;24.97
77205;BME280;67992;46.618;18.850;2023-04-06T01:53:38;100385.19;;;16.96;25.06
77205;BME280;67992;46.618;18.850;2023-04-06T01:56:06;100381.03;;;16.94;25.30
77205;BME280;67992;46.618;18.850;2023-04-06T01:58:37;100391.78;;;16.94;24.96
77205;BME280;67992;46.618;18.850;2023-04-06T02:01:06;100392.13;;;16.91;24.86
77205;BME280;67992;46.618;18.850;2023-04-06T02:03:31;100366.53;;;16.80;25.15
77205;BME280;67992;46.618;18.850;2023-04-06T02:05:59;100386.28;;;16.87;25.05
77205;BME280;67992;46.618;18.850;2023-04-06T02:08:28;100383.09;;;16.84;25.13
77205;BME280;67992;46.618;18.850;2023-04-06T02:10:53;100381.63;;;16.81;25.30
77205;BME280;67992;46.618;18.850;2023-04-06T02:13:19;100380.78;;;16.81;25.25
77205;BME280;67992;46.618;18.850;2023-04-06T02:15:45;100384.50;;;16.80;25.09
77205;BME280;67992;46.618;18.850;2023-04-06T02:18:15;100371.75;;;16.74;25.22
77205;BME280;67992;46.618;18.850;2023-04-06T02:20:42;100381.31;;;16.76;25.35
77205;BME280;67992;46.618;18.850;2023-04-06T02:23:11;100384.84;;;16.77;25.53
77205;BME280;67992;46.618;18.850;2023-04-06T02:25:36;100370.81;;;16.67;25.37
77205;BME280;67992;46.618;18.850;2023-04-06T02:28:05;100375.53;;;16.65;25.33
77205;BME280;67992;46.618;18.850;2023-04-06T02:30:31;100379.34;;;16.70;25.46
77205;BME280;67992;46.618;18.850;2023-04-06T02:32:59;100382.84;;;16.71;25.42
77205;BME280;67992;46.618;18.850;2023-04-06T02:35:28;100386.72;;;16.68;25.71
77205;BME280;67992;46.618;18.850;2023-04-06T02:37:54;100386.72;;;16.68;25.56
77205;BME280;67992;46.618;18.850;2023-04-06T02:40:20;100390.63;;;16.66;25.44
77205;BME280;67992;46.618;18.850;2023-04-06T02:42:48;100377.38;;;16.64;25.77
77205;BME280;67992;46.618;18.850;2023-04-06T02:45:14;100384.94;;;16.61;25.34
77205;BME280;67992;46.618;18.850;2023-04-06T02:47:44;100380.59;;;16.60;25.73
77205;BME280;67992;46.618;18.850;2023-04-06T02:50:10;100379.09;;;16.57;25.35
77205;BME280;67992;46.618;18.850;2023-04-06T02:52:38;100380.94;;;16.57;25.44
77205;BME280;67992;46.618;18.850;2023-04-06T02:55:07;100382.78;;;16.56;25.23
77205;BME280;67992;46.618;18.850;2023-04-06T02:57:39;100378.59;;;16.54;25.51
77205;BME280;67992;46.618;18.850;2023-04-06T03:00:09;100375.06;;;16.45;25.41
77205;BME280;67992;46.618;18.850;2023-04-06T03:02:34;100361.00;;;16.43;25.39
77205;BME280;67992;46.618;18.850;2023-04-06T03:05:00;100369.38;;;16.48;25.30
77205;BME280;67992;46.618;18.850;2023-04-06T03:07:29;100370.09;;;16.42;25.42
77205;BME280;67992;46.618;18.850;2023-04-06T03:09:57;100362.91;;;16.34;25.35
77205;BME280;67992;46.618;18.850;2023-04-06T03:12:26;100374.97;;;16.38;25.42
77205;BME280;67992;46.618;18.850;2023-04-06T03:14:51;100381.84;;;16.41;25.42
77205;BME280;67992;46.618;18.850;2023-04-06T03:17:17;100379.34;;;16.39;25.51
77205;BME280;67992;46.618;18.850;2023-04-06T03:19:42;100375.00;;;16.30;25.78
77205;BME280;67992;46.618;18.850;2023-04-06T03:22:08;100380.88;;;16.34;25.62
77205;BME280;67992;46.618;18.850;2023-04-06T03:24:36;100387.72;;;16.36;25.54
77205;BME280;67992;46.618;18.850;2023-04-06T03:27:02;100390.41;;;16.36;25.55
77205;BME280;67992;46.618;18.850;2023-04-06T03:29:27;100387.41;;;16.31;25.54
77205;BME280;67992;46.618;18.850;2023-04-06T03:31:58;100386.59;;;16.31;25.70
77205;BME280;67992;46.618;18.850;2023-04-06T03:34:27;100386.38;;;16.32;25.54
77205;BME280;67992;46.618;18.850;2023-04-06T03:36:52;100392.78;;;16.31;25.53
77205;BME280;67992;46.618;18.850;2023-04-06T03:39:18;100387.97;;;16.27;25.58
77205;BME280;67992;46.618;18.850;2023-04-06T03:41:43;100386.47;;;16.24;25.36
77205;BME280;67992;46.618;18.850;2023-04-06T03:44:10;100389.94;;;16.25;25.43
77205;BME280;67992;46.618;18.850;2023-04-06T03:46:36;100383.78;;;16.24;25.60
77205;BME280;67992;46.618;18.850;2023-04-06T03:49:01;100384.59;;;16.25;26.07
77205;BME280;67992;46.618;18.850;2023-04-06T03:51:27;100392.16;;;16.21;25.67
77205;BME280;67992;46.618;18.850;2023-04-06T03:53:56;100385.63;;;16.16;25.74
77205;BME280;67992;46.618;18.850;2023-04-06T03:56:24;100381.28;;;16.15;25.57
77205;BME280;67992;46.618;18.850;2023-04-06T03:58:52;100389.16;;;16.16;25.66
77205;BME280;67992;46.618;18.850;2023-04-06T04:01:24;100391.00;;;16.16;25.24
77205;BME280;67992;46.618;18.850;2023-04-06T04:03:53;100388.66;;;16.13;25.86
77205;BME280;67992;46.618;18.850;2023-04-06T04:06:18;100394.03;;;16.13;25.57
77205;BME280;67992;46.618;18.850;2023-04-06T04:08:47;100382.47;;;16.04;25.94
77205;BME280;67992;46.618;18.850;2023-04-06T04:11:13;100393.56;;;16.09;26.01
77205;BME280;67992;46.618;18.850;2023-04-06T04:13:38;100384.34;;;16.04;25.48
77205;BME280;67992;46.618;18.850;2023-04-06T04:16:04;100402.63;;;16.08;26.00
77205;BME280;67992;46.618;18.850;2023-04-06T04:18:30;100398.09;;;16.09;25.92
77205;BME280;67992;46.618;18.850;2023-04-06T04:20:55;100398.44;;;16.06;25.82
77205;BME280;67992;46.618;18.850;2023-04-06T04:23:21;100399.44;;;16.05;25.61
77205;BME280;67992;46.618;18.850;2023-04-06T04:25:46;100400.47;;;16.04;25.83
77205;BME280;67992;46.618;18.850;2023-04-06T04:28:18;100398.97;;;16.01;25.52
77205;BME280;67992;46.618;18.850;2023-04-06T04:30:47;100406.16;;;16.01;26.01
77205;BME280;67992;46.618;18.850;2023-04-06T04:33:13;100396.44;;;16.00;25.63
77205;BME280;67992;46.618;18.850;2023-04-06T04:35:44;100410.88;;;15.99;25.51
77205;BME280;67992;46.618;18.850;2023-04-06T04:38:12;100392.94;;;15.91;25.73
77205;BME280;67992;46.618;18.850;2023-04-06T04:40:38;100409.38;;;15.96;25.62
77205;BME280;67992;46.618;18.850;2023-04-06T04:43:06;100393.44;;;15.87;25.76
77205;BME280;67992;46.618;18.850;2023-04-06T04:45:35;100405.84;;;15.96;26.01
77205;BME280;67992;46.618;18.850;2023-04-06T04:48:00;100377.72;;;15.75;25.71
77205;BME280;67992;46.618;18.850;2023-04-06T04:50:26;100402.00;;;15.90;26.15
77205;BME280;67992;46.618;18.850;2023-04-06T04:52:52;100409.22;;;15.90;26.02
77205;BME280;67992;46.618;18.850;2023-04-06T04:55:18;100403.00;;;15.89;25.72
77205;BME280;67992;46.618;18.850;2023-04-06T04:57:43;100402.34;;;15.87;25.59
77205;BME280;67992;46.618;18.850;2023-04-06T05:00:12;100406.88;;;15.87;25.41
77205;BME280;67992;46.618;18.850;2023-04-06T05:02:38;100405.53;;;15.82;25.87
77205;BME280;67992;46.618;18.850;2023-04-06T05:05:09;100413.06;;;15.87;25.95
77205;BME280;67992;46.618;18.850;2023-04-06T05:07:38;100394.31;;;15.79;25.76
77205;BME280;67992;46.618;18.850;2023-04-06T05:10:04;100406.19;;;15.85;25.88
77205;BME280;67992;46.618;18.850;2023-04-06T05:12:30;100406.19;;;15.85;25.59
77205;BME280;67992;46.618;18.850;2023-04-06T05:14:55;100409.91;;;15.84;26.11
77205;BME280;67992;46.618;18.850;2023-04-06T05:17:21;100408.22;;;15.82;26.10
77205;BME280;67992;46.618;18.850;2023-04-06T05:19:47;100411.75;;;15.83;25.95
77205;BME280;67992;46.618;18.850;2023-04-06T05:22:12;100412.75;;;15.82;25.95
77205;BME280;67992;46.618;18.850;2023-04-06T05:24:41;100410.91;;;15.82;26.10
77205;BME280;67992;46.618;18.850;2023-04-06T05:27:09;100404.69;;;15.82;25.69
77205;BME280;67992;46.618;18.850;2023-04-06T05:29:35;100405.72;;;15.81;25.86
77205;BME280;67992;46.618;18.850;2023-04-06T05:32:01;100406.72;;;15.80;26.10
77205;BME280;67992;46.618;18.850;2023-04-06T05:34:27;100409.22;;;15.81;25.75
77205;BME280;67992;46.618;18.850;2023-04-06T05:36:52;100400.34;;;15.81;25.78
77205;BME280;67992;46.618;18.850;2023-04-06T05:39:18;100403.19;;;15.79;25.94
77205;BME280;67992;46.618;18.850;2023-04-06T05:41:44;100402.19;;;15.80;25.63
77205;BME280;67992;46.618;18.850;2023-04-06T05:44:09;100374.56;;;15.64;25.54
77205;BME280;67992;46.618;18.850;2023-04-06T05:46:35;100393.66;;;15.77;25.37
77205;BME280;67992;46.618;18.850;2023-04-06T05:49:04;100400.38;;;15.73;24.85
77205;BME280;67992;46.618;18.850;2023-04-06T05:51:29;100392.00;;;15.68;25.13
77205;BME280;67992;46.618;18.850;2023-04-06T05:53:55;100378.41;;;15.61;24.75
77205;BME280;67992;46.618;18.850;2023-04-06T05:56:20;100388.47;;;15.67;25.02
77205;BME280;67992;46.618;18.850;2023-04-06T05:58:46;100388.81;;;15.64;25.32
77205;BME280;67992;46.618;18.850;2023-04-06T06:01:11;100393.19;;;15.65;25.60
77205;BME280;67992;46.618;18.850;2023-04-06T06:03:37;100384.47;;;15.63;25.35
77205;BME280;67992;46.618;18.850;2023-04-06T06:06:05;100376.56;;;15.62;25.75
77205;BME280;67992;46.618;18.850;2023-04-06T06:08:34;100384.47;;;15.63;25.81
77205;BME280;67992;46.618;18.850;2023-04-06T06:11:01;100382.59;;;15.64;25.46
77205;BME280;67992;46.618;18.850;2023-04-06T06:13:27;100380.75;;;15.64;25.62
77205;BME280;67992;46.618;18.850;2023-04-06T06:15:52;100380.75;;;15.64;25.60
77205;BME280;67992;46.618;18.850;2023-04-06T06:18:18;100378.91;;;15.65;25.73
77205;BME280;67992;46.618;18.850;2023-04-06T06:20:44;100377.22;;;15.64;26.33
77205;BME280;67992;46.618;18.850;2023-04-06T06:23:09;100373.75;;;15.63;25.84
77205;BME280;67992;46.618;18.850;2023-04-06T06:25:38;100372.72;;;15.64;26.20
77205;BME280;67992;46.618;18.850;2023-04-06T06:28:04;100367.88;;;15.60;26.18
77205;BME280;67992;46.618;18.850;2023-04-06T06:30:32;100364.84;;;15.63;25.88
77205;BME280;67992;46.618;18.850;2023-04-06T06:33:00;100343.75;;;15.52;26.25
77205;BME280;67992;46.618;18.850;2023-04-06T06:35:26;100350.44;;;15.56;25.90
77205;BME280;67992;46.618;18.850;2023-04-06T06:37:54;100351.44;;;15.63;26.30
77205;BME280;67992;46.618;18.850;2023-04-06T06:40:20;100347.25;;;15.60;26.22
77205;BME280;67992;46.618;18.850;2023-04-06T06:42:49;100339.72;;;15.56;26.00
77205;BME280;67992;46.618;18.850;2023-04-06T06:45:16;100335.84;;;15.58;26.37
77205;BME280;67992;46.618;18.850;2023-04-06T06:47:45;100355.78;;;15.64;26.28
77205;BME280;67992;46.618;18.850;2023-04-06T06:50:11;100346.06;;;15.63;26.45
77205;BME280;67992;46.618;18.850;2023-04-06T06:52:36;100359.31;;;15.64;26.29
77205;BME280;67992;46.618;18.850;2023-04-06T06:55:02;100359.97;;;15.66;26.08
77205;BME280;67992;46.618;18.850;2023-04-06T06:57:30;100360.81;;;15.67;26.62
77205;BME280;67992;46.618;18.850;2023-04-06T06:59:59;100356.63;;;15.64;26.46
77205;BME280;67992;46.618;18.850;2023-04-06T07:02:25;100358.31;;;15.65;26.58
77205;BME280;67992;46.618;18.850;2023-04-06T07:04:53;100360.13;;;15.65;26.13
77205;BME280;67992;46.618;18.850;2023-04-06T07:07:19;100361.84;;;15.66;26.49
77205;BME280;67992;46.618;18.850;2023-04-06T07:09:45;100362.63;;;15.66;26.42
77205;BME280;67992;46.618;18.850;2023-04-06T07:12:14;100359.16;;;15.66;26.64
77205;BME280;67992;46.618;18.850;2023-04-06T07:14:41;100351.91;;;15.66;26.14
77205;BME280;67992;46.618;18.850;2023-04-06T07:17:07;100352.59;;;15.68;26.58
77205;BME280;67992;46.618;18.850;2023-04-06T07:19:37;100341.03;;;15.60;26.91
77205;BME280;67992;46.618;18.850;2023-04-06T07:22:03;100345.88;;;15.64;26.29
77205;BME280;67992;46.618;18.850;2023-04-06T07:24:31;100350.06;;;15.67;26.77
77205;BME280;67992;46.618;18.850;2023-04-06T07:26:58;100350.91;;;15.67;26.86
77205;BME280;67992;46.618;18.850;2023-04-06T07:29:27;100339.19;;;15.68;26.79
77205;BME280;67992;46.618;18.850;2023-04-06T07:31:56;100341.88;;;15.68;26.76
77205;BME280;67992;46.618;18.850;2023-04-06T07:34:22;100335.66;;;15.68;26.52
77205;BME280;67992;46.618;18.850;2023-04-06T07:36:48;100333.97;;;15.67;27.01
77205;BME280;67992;46.618;18.850;2023-04-06T07:39:14;100334.63;;;15.69;26.32
77205;BME280;67992;46.618;18.850;2023-04-06T07:41:40;100332.97;;;15.68;26.88
77205;BME280;67992;46.618;18.850;2023-04-06T07:44:06;100332.97;;;15.68;26.99
77205;BME280;67992;46.618;18.850;2023-04-06T07:46:35;100330.28;;;15.68;26.37
77205;BME280;67992;46.618;18.850;2023-04-06T07:49:01;100320.91;;;15.64;27.01
77205;BME280;67992;46.618;18.850;2023-04-06T07:51:27;100333.63;;;15.70;26.98
77205;BME280;67992;46.618;18.850;2023-04-06T07:53:53;100323.75;;;15.70;26.48
77205;BME280;67992;46.618;18.850;2023-04-06T07:56:24;100319.22;;;15.71;26.78
77205;BME280;67992;46.618;18.850;2023-04-06T07:58:53;100310.00;;;15.65;27.07
77205;BME280;67992;46.618;18.850;2023-04-06T08:01:25;100316.53;;;15.71;27.10
77205;BME280;67992;46.618;18.850;2023-04-06T08:03:56;100315.50;;;15.72;26.55
77205;BME280;67992;46.618;18.850;2023-04-06T08:06:25;100315.69;;;15.70;26.54
77205;BME280;67992;46.618;18.850;2023-04-06T08:08:54;100309.50;;;15.70;26.72
77205;BME280;67992;46.618;18.850;2023-04-06T08:11:19;100310.34;;;15.70;27.07
77205;BME280;67992;46.618;18.850;2023-04-06T08:13:48;100281.38;;;15.58;27.06
77205;BME280;67992;46.618;18.850;2023-04-06T08:16:13;100298.75;;;15.70;26.53
77205;BME280;67992;46.618;18.850;2023-04-06T08:18:42;100294.25;;;15.62;26.65
77205;BME280;67992;46.618;18.850;2023-04-06T08:21:08;100312.16;;;15.70;26.50
77205;BME280;67992;46.618;18.850;2023-04-06T08:23:34;100313.00;;;15.70;26.83
77205;BME280;67992;46.618;18.850;2023-04-06T08:26:05;100305.13;;;15.69;27.38
77205;BME280;67992;46.618;18.850;2023-04-06T08:28:30;100312.34;;;15.68;27.10
77205;BME280;67992;46.618;18.850;2023-04-06T08:30:56;100307.16;;;15.67;27.11
77205;BME280;67992;46.618;18.850;2023-04-06T08:33:24;100305.97;;;15.69;26.76
77205;BME280;67992;46.618;18.850;2023-04-06T08:35:50;100309.50;;;15.70;27.01
77205;BME280;67992;46.618;18.850;2023-04-06T08:38:19;100294.91;;;15.64;26.95
77205;BME280;67992;46.618;18.850;2023-04-06T08:40:47;100307.47;;;15.72;27.09
77205;BME280;67992;46.618;18.850;2023-04-06T08:43:20;100298.56;;;15.71;27.36
77205;BME280;67992;46.618;18.850;2023-04-06T08:45:47;100301.09;;;15.73;27.15
77205;BME280;67992;46.618;18.850;2023-04-06T08:48:12;100300.44;;;15.71;27.40
77205;BME280;67992;46.618;18.850;2023-04-06T08:50:42;100288.03;;;15.70;27.01
77205;BME280;67992;46.618;18.850;2023-04-06T08:53:08;100284.03;;;15.66;27.00
77205;BME280;67992;46.618;18.850;2023-04-06T08:55:35;100290.72;;;15.70;26.98
77205;BME280;67992;46.618;18.850;2023-04-06T08:58:06;100281.34;;;15.66;27.08
77205;BME280;67992;46.618;18.850;2023-04-06T09:00:32;100291.38;;;15.72;27.02
77205;BME280;67992;46.618;18.850;2023-04-06T09:03:01;100289.53;;;15.72;27.21
77205;BME280;67992;46.618;18.850;2023-04-06T09:05:27;100276.28;;;15.71;26.85
77205;BME280;67992;46.618;18.850;2023-04-06T09:07:56;100285.84;;;15.73;27.19
77205;BME280;67992;46.618;18.850;2023-04-06T09:10:30;100285.66;;;15.75;27.16
77205;BME280;67992;46.618;18.850;2023-04-06T09:13:06;100282.97;;;15.75;27.15
77205;BME280;67992;46.618;18.850;2023-04-06T09:15:32;100276.44;;;15.69;26.99
77205;BME280;67992;46.618;18.850;2023-04-06T09:18:03;100281.47;;;15.72;26.97
77205;BME280;67992;46.618;18.850;2023-04-06T09:20:34;100275.91;;;15.74;26.99
77205;BME280;67992;46.618;18.850;2023-04-06T09:23:02;100272.25;;;15.75;27.55
77205;BME280;67992;46.618;18.850;2023-04-06T09:25:34;100267.41;;;15.70;27.31
77205;BME280;67992;46.618;18.850;2023-04-06T09:28:06;100278.44;;;15.75;26.58
77205;BME280;67992;46.618;18.850;2023-04-06T09:30:32;100262.03;;;15.70;26.75
77205;BME280;67992;46.618;18.850;2023-04-06T09:33:04;100265.88;;;15.76;27.10
77205;BME280;67992;46.618;18.850;2023-04-06T09:35:30;100267.72;;;15.75;26.91
77205;BME280;67992;46.618;18.850;2023-04-06T09:37:58;100251.66;;;15.67;27.30
77205;BME280;67992;46.618;18.850;2023-04-06T09:40:27;100256.31;;;15.73;26.88
77205;BME280;67992;46.618;18.850;2023-04-06T09:42:57;100264.53;;;15.72;27.19
77205;BME280;67992;46.618;18.850;2023-04-06T09:45:25;100263.34;;;15.74;27.29
77205;BME280;67992;46.618;18.850;2023-04-06T09:47:51;100260.84;;;15.73;27.14
77205;BME280;67992;46.618;18.850;2023-04-06T09:50:22;100248.28;;;15.73;26.99
77205;BME280;67992;46.618;18.850;2023-04-06T09:52:53;100246.59;;;15.72;26.80
77205;BME280;67992;46.618;18.850;2023-04-06T09:55:30;100248.63;;;15.70;26.79
77205;BME280;67992;46.618;18.850;2023-04-06T09:58:07;100237.91;;;15.70;27.12
77205;BME280;67992;46.618;18.850;2023-04-06T10:00:43;100240.22;;;15.73;27.10
77205;BME280;67992;46.618;18.850;2023-04-06T10:05:59;100231.16;;;15.74;27.37
77205;BME280;67992;46.618;18.850;2023-04-06T10:08:27;100225.78;;;15.74;27.50
77205;BME280;67992;46.618;18.850;2023-04-06T10:10:56;100224.94;;;15.74;27.54
77205;BME280;67992;46.618;18.850;2023-04-06T10:13:23;100236.53;;;15.74;27.15
77205;BME280;67992;46.618;18.850;2023-04-06T10:15:50;100211.59;;;15.66;27.20
77205;BME280;67992;46.618;18.850;2023-04-06T10:18:20;100214.22;;;15.74;27.44
77205;BME280;67992;46.618;18.850;2023-04-06T10:21:00;100199.97;;;15.73;27.49
77205;BME280;67992;46.618;18.850;2023-04-06T10:23:32;100210.72;;;15.73;27.14
77205;BME280;67992;46.618;18.850;2023-04-06T10:26:00;100208.03;;;15.73;27.66
77205;BME280;67992;46.618;18.850;2023-04-06T10:28:33;100211.06;;;15.70;27.41
77205;BME280;67992;46.618;18.850;2023-04-06T10:31:04;100195.50;;;15.66;27.34
77205;BME280;67992;46.618;18.850;2023-04-06T10:33:33;100205.69;;;15.70;27.32
77205;BME280;67992;46.618;18.850;2023-04-06T10:36:14;100195.13;;;15.69;27.21
77205;BME280;67992;46.618;18.850;2023-04-06T10:38:41;100175.38;;;15.62;27.20
77205;BME280;67992;46.618;18.850;2023-04-06T10:41:11;100183.59;;;15.68;27.14
77205;BME280;67992;46.618;18.850;2023-04-06T10:43:39;100189.09;;;15.67;27.41
77205;BME280;67992;46.618;18.850;2023-04-06T10:46:09;100182.09;;;15.66;27.44
77205;BME280;67992;46.618;18.850;2023-04-06T10:48:43;100177.53;;;15.66;27.74
77205;BME280;67992;46.618;18.850;2023-04-06T10:51:16;100181.06;;;15.67;28.00
77205;BME280;67992;46.618;18.850;2023-04-06T10:53:51;100180.22;;;15.66;27.86
77205;BME280;67992;46.618;18.850;2023-04-06T10:56:30;100175.69;;;15.67;27.70
77205;BME280;67992;46.618;18.850;2023-04-06T10:59:02;100161.44;;;15.66;27.35
77205;BME280;67992;46.618;18.850;2023-04-06T11:01:28;100157.09;;;15.65;27.39
77205;BME280;67992;46.618;18.850;2023-04-06T11:03:55;100167.00;;;15.65;28.02
77205;BME280;67992;46.618;18.850;2023-04-06T11:06:27;100165.16;;;15.65;27.35
77205;BME280;67992;46.618;18.850;2023-04-06T11:08:58;100154.94;;;15.61;27.89
77205;BME280;67992;46.618;18.850;2023-04-06T11:11:28;100167.19;;;15.63;27.83
77205;BME280;67992;46.618;18.850;2023-04-06T11:13:58;100137.22;;;15.52;27.78
77205;BME280;67992;46.618;18.850;2023-04-06T11:16:31;100142.19;;;15.63;27.78
77205;BME280;67992;46.618;18.850;2023-04-06T11:19:06;100148.41;;;15.63;27.55
77205;BME280;67992;46.618;18.850;2023-04-06T11:21:42;100151.09;;;15.63;27.81
77205;BME280;67992;46.618;18.850;2023-04-06T11:24:23;100144.88;;;15.63;27.85
77205;BME280;67992;46.618;18.850;2023-04-06T11:26:58;100143.03;;;15.63;27.99
77205;BME280;67992;46.618;18.850;2023-04-06T11:29:28;100153.06;;;15.61;27.96
77205;BME280;67992;46.618;18.850;2023-04-06T11:31:58;100134.84;;;15.57;28.05
77205;BME280;67992;46.618;18.850;2023-04-06T11:34:25;100145.03;;;15.61;27.50
77205;BME280;67992;46.618;18.850;2023-04-06T11:36:55;100140.03;;;15.58;27.37
77205;BME280;67992;46.618;18.850;2023-04-06T11:39:23;100130.97;;;15.59;27.69
77205;BME280;67992;46.618;18.850;2023-04-06T11:41:53;100146.22;;;15.59;27.85
77205;BME280;67992;46.618;18.850;2023-04-06T11:46:58;100120.59;;;15.56;28.06
77205;BME280;67992;46.618;18.850;2023-04-06T11:49:30;100133.84;;;15.58;27.87
77205;BME280;67992;46.618;18.850;2023-04-06T11:51:57;100122.91;;;15.59;28.17
77205;BME280;67992;46.618;18.850;2023-04-06T11:54:33;100125.78;;;15.58;28.17
77205;BME280;67992;46.618;18.850;2023-04-06T11:57:05;100112.53;;;15.56;28.14
77205;BME280;67992;46.618;18.850;2023-04-06T11:59:34;100098.13;;;15.57;27.85
77205;BME280;67992;46.618;18.850;2023-04-06T12:02:04;100101.81;;;15.56;28.04
77205;BME280;67992;46.618;18.850;2023-04-06T12:04:29;100108.84;;;15.57;28.16
77205;BME280;67992;46.618;18.850;2023-04-06T12:07:01;100101.66;;;15.58;28.42
77205;BME280;67992;46.618;18.850;2023-04-06T12:09:29;100104.50;;;15.56;27.92
77205;BME280;67992;46.618;18.850;2023-04-06T12:11:56;100099.13;;;15.56;27.95
77205;BME280;67992;46.618;18.850;2023-04-06T12:14:22;100096.44;;;15.56;28.00
77205;BME280;67992;46.618;18.850;2023-04-06T12:16:54;100095.63;;;15.56;28.00
77205;BME280;67992;46.618;18.850;2023-04-06T12:19:26;100098.31;;;15.56;28.09
77205;BME280;67992;46.618;18.850;2023-04-06T12:21:52;100103.69;;;15.56;28.32
77205;BME280;67992;46.618;18.850;2023-04-06T12:24:18;100092.13;;;15.55;28.13
77205;BME280;67992;46.618;18.850;2023-04-06T12:26:48;100093.66;;;15.50;28.05
77205;BME280;67992;46.618;18.850;2023-04-06T12:29:16;100100.50;;;15.52;28.23
77205;BME280;67992;46.618;18.850;2023-04-06T12:31:41;100089.97;;;15.51;28.07
77205;BME280;67992;46.618;18.850;2023-04-06T12:34:13;100091.63;;;15.52;28.12
77205;BME280;67992;46.618;18.850;2023-04-06T12:36:42;100087.09;;;15.52;28.32
77205;BME280;67992;46.618;18.850;2023-04-06T12:39:11;100090.78;;;15.51;28.26
77205;BME280;67992;46.618;18.850;2023-04-06T12:41:37;100090.78;;;15.51;28.21
77205;BME280;67992;46.618;18.850;2023-04-06T12:44:08;100084.41;;;15.52;28.43
77205;BME280;67992;46.618;18.850;2023-04-06T12:46:34;100070.16;;;15.52;28.40
77205;BME280;67992;46.618;18.850;2023-04-06T12:49:03;100079.25;;;15.51;28.48